createdAt,value
2023-01-09T00:01:16.232Z,86.09
2023-01-09T00:03:43.911Z,85.79
2023-01-09T00:06:11.268Z,86.92
2023-01-09T00:08:38.734Z,86.26
2023-01-09T00:11:07.832Z,87.24
2023-01-09T00:13:35.723Z,86.62
2023-01-09T00:16:05.442Z,86.76
2023-01-09T00:18:33.622Z,86.23
2023-01-09T00:21:05.866Z,86.68
2023-01-09T00:23:33.528Z,86.54
2023-01-09T00:26:05.420Z,86.77
2023-01-09T00:28:34.764Z,87.66
2023-01-09T00:31:04.072Z,88.34
2023-01-09T00:33:51.497Z,88.57
2023-01-09T00:36:19.239Z,88.33
2023-01-09T00:38:47.249Z,89.53
2023-01-09T00:41:20.206Z,90.04
2023-01-09T00:43:56.980Z,89.55
2023-01-09T00:46:30.776Z,89.02
2023-01-09T00:48:58.937Z,89.40
2023-01-09T00:51:27.895Z,89.05
2023-01-09T00:53:55.408Z,89.33
2023-01-09T00:56:23.279Z,88.12
2023-01-09T00:58:52.533Z,88.38
2023-01-09T01:01:20.082Z,88.72
2023-01-09T01:03:48.001Z,88.95
2023-01-09T01:06:33.967Z,88.73
2023-01-09T01:09:01.740Z,88.36
2023-01-09T01:11:29.162Z,87.64
2023-01-09T01:13:56.475Z,87.59
2023-01-09T01:16:24.448Z,87.77
2023-01-09T01:18:51.800Z,87.48
2023-01-09T01:21:19.170Z,86.62
2023-01-09T01:23:46.783Z,86.41
2023-01-09T01:26:16.585Z,86.72
2023-01-09T01:28:44.016Z,87.11
2023-01-09T01:31:20.793Z,87.36
2023-01-09T01:33:48.052Z,85.92
2023-01-09T01:36:17.684Z,86.51
2023-01-09T01:38:44.937Z,86.48
2023-01-09T01:41:12.353Z,85.38
2023-01-09T01:43:55.655Z,85.75
2023-01-09T01:46:23.469Z,84.96
2023-01-09T01:49:13.939Z,84.01
2023-01-09T01:51:45.457Z,84.09
2023-01-09T01:54:18.057Z,84.47
2023-01-09T01:56:49.170Z,83.79
2023-01-09T01:59:32.197Z,83.09
2023-01-09T02:02:02.009Z,83.50
2023-01-09T02:04:33.245Z,85.12
2023-01-09T02:07:05.087Z,85.74
2023-01-09T02:09:32.398Z,86.02
2023-01-09T02:12:01.041Z,85.97
2023-01-09T02:14:32.124Z,85.79
2023-01-09T02:17:19.407Z,85.16
2023-01-09T02:20:34.075Z,83.73
2023-01-09T02:23:26.209Z,82.26
2023-01-09T02:26:08.460Z,82.17
2023-01-09T02:28:54.515Z,82.04
2023-01-09T02:31:43.935Z,82.18
2023-01-09T02:34:11.255Z,81.43
2023-01-09T02:36:41.820Z,80.95
2023-01-09T02:39:26.416Z,81.12
2023-01-09T02:42:13.202Z,81.16
2023-01-09T02:44:43.175Z,81.28
2023-01-09T02:47:16.748Z,81.81
2023-01-09T02:49:52.048Z,83.07
2023-01-09T02:52:37.957Z,81.49
2023-01-09T02:55:24.645Z,81.77
2023-01-09T02:58:08.782Z,83.78
2023-01-09T03:01:01.921Z,86.99
2023-01-09T03:04:01.143Z,88.32
2023-01-09T03:06:39.200Z,87.57
2023-01-09T03:09:15.411Z,87.84
2023-01-09T03:11:46.867Z,88.93
2023-01-09T03:14:17.987Z,85.33
2023-01-09T03:16:49.075Z,84.25
2023-01-09T03:19:21.016Z,83.25
2023-01-09T03:21:49.253Z,83.42
2023-01-09T03:24:16.879Z,82.30
2023-01-09T03:26:44.315Z,83.85
2023-01-09T03:29:11.711Z,84.17
2023-01-09T03:31:39.390Z,88.68
2023-01-09T03:34:07.072Z,85.35
2023-01-09T03:36:34.388Z,85.75
2023-01-09T03:39:02.021Z,85.63
2023-01-09T03:41:29.434Z,85.56
2023-01-09T03:43:56.757Z,85.19
2023-01-09T03:46:24.395Z,85.28
2023-01-09T03:48:51.658Z,83.48
2023-01-09T03:51:18.926Z,83.67
2023-01-09T03:53:46.572Z,83.46
2023-01-09T03:56:13.889Z,84.64
2023-01-09T03:58:41.391Z,84.76
2023-01-09T04:01:12.774Z,84.37
2023-01-09T04:03:40.662Z,83.66
2023-01-09T04:06:08.480Z,83.83
2023-01-09T04:08:35.749Z,82.96
2023-01-09T04:11:03.359Z,82.68
2023-01-09T04:13:30.646Z,82.95
2023-01-09T04:15:58.350Z,84.77
2023-01-09T04:18:26.030Z,83.54
2023-01-09T04:20:55.274Z,82.76
2023-01-09T04:23:23.067Z,84.48
2023-01-09T04:25:50.991Z,87.53
2023-01-09T04:28:19.339Z,89.21
2023-01-09T04:30:46.617Z,90.17
2023-01-09T04:33:14.250Z,91.65
2023-01-09T04:35:41.659Z,91.58
2023-01-09T04:38:09.021Z,92.19
2023-01-09T04:40:36.620Z,92.77
2023-01-09T04:43:03.943Z,92.44
2023-01-09T04:45:31.832Z,92.33
2023-01-09T04:47:59.509Z,92.70
2023-01-09T04:50:26.771Z,92.59
2023-01-09T04:52:54.135Z,93.20
2023-01-09T04:55:21.863Z,93.31
2023-01-09T04:57:49.168Z,92.92
2023-01-09T05:00:16.851Z,92.41
2023-01-09T05:02:44.615Z,92.62
2023-01-09T05:05:12.264Z,93.20
2023-01-09T05:07:40.153Z,93.16
2023-01-09T05:10:10.240Z,92.56
2023-01-09T05:12:37.985Z,92.84
2023-01-09T05:15:07.394Z,93.35
2023-01-09T05:17:35.262Z,93.84
2023-01-09T05:20:02.710Z,93.57
2023-01-09T05:22:30.282Z,93.23
2023-01-09T05:25:00.283Z,93.40
2023-01-09T05:27:27.980Z,93.79
2023-01-09T05:29:55.264Z,93.98
2023-01-09T05:32:23.997Z,93.66
2023-01-09T05:34:51.247Z,93.67
2023-01-09T05:37:18.588Z,93.66
2023-01-09T05:39:46.216Z,93.72
2023-01-09T05:42:13.458Z,93.84
2023-01-09T05:44:41.489Z,93.56
2023-01-09T05:47:09.077Z,93.60
2023-01-09T05:49:36.480Z,93.75
2023-01-09T05:52:05.022Z,93.46
2023-01-09T05:54:32.611Z,93.76
2023-01-09T05:56:59.868Z,93.76
2023-01-09T05:59:27.549Z,94.34
2023-01-09T06:01:55.340Z,94.42
2023-01-09T06:04:23.202Z,94.55
2023-01-09T06:06:50.929Z,93.86
2023-01-09T06:09:18.200Z,93.72
2023-01-09T06:11:45.747Z,93.51
2023-01-09T06:14:13.049Z,94.16
2023-01-09T06:16:40.509Z,94.51
2023-01-09T06:19:08.292Z,93.99
2023-01-09T06:21:35.630Z,93.52
2023-01-09T06:24:02.897Z,94.04
2023-01-09T06:26:30.612Z,93.89
2023-01-09T06:28:58.022Z,93.41
2023-01-09T06:31:25.951Z,93.41
2023-01-09T06:33:53.774Z,93.86
2023-01-09T06:36:22.553Z,93.88
2023-01-09T06:38:50.221Z,93.95
2023-01-09T06:41:18.338Z,93.92
2023-01-09T06:43:45.657Z,93.61
2023-01-09T06:46:12.963Z,93.87
2023-01-09T06:48:40.686Z,94.18
2023-01-09T06:51:07.978Z,94.09
2023-01-09T06:53:35.422Z,93.72
2023-01-09T06:56:03.159Z,93.58
2023-01-09T06:58:30.698Z,93.61
2023-01-09T07:01:01.105Z,93.15
2023-01-09T07:03:28.908Z,92.86
2023-01-09T07:05:56.664Z,92.93
2023-01-09T07:08:24.065Z,92.85
2023-01-09T07:10:51.687Z,92.67
2023-01-09T07:13:19.188Z,92.94
2023-01-09T07:15:47.757Z,92.75
2023-01-09T07:18:15.850Z,92.82
2023-01-09T07:20:43.372Z,92.51
2023-01-09T07:23:14.032Z,92.29
2023-01-09T07:25:45.383Z,92.54
2023-01-09T07:28:12.856Z,92.46
2023-01-09T07:30:40.176Z,92.42
2023-01-09T07:33:08.013Z,92.41
2023-01-09T07:35:35.783Z,91.94
2023-01-09T07:38:03.141Z,91.69
2023-01-09T07:40:30.958Z,91.97
2023-01-09T07:42:58.297Z,91.33
2023-01-09T07:45:25.868Z,91.24
2023-01-09T07:47:53.577Z,91.35
2023-01-09T07:50:21.032Z,91.26
2023-01-09T07:52:48.519Z,91.15
2023-01-09T07:55:17.582Z,90.73
2023-01-09T07:57:49.217Z,90.45
2023-01-09T08:00:17.339Z,90.48
2023-01-09T08:02:45.017Z,90.05
2023-01-09T08:05:15.174Z,90.06
2023-01-09T08:07:43.215Z,89.93
2023-01-09T08:10:11.925Z,89.04
2023-01-09T08:12:43.091Z,88.44
2023-01-09T08:15:11.250Z,88.38
2023-01-09T08:17:41.316Z,88.91
2023-01-09T08:20:12.624Z,88.55
2023-01-09T08:22:49.800Z,88.87
2023-01-09T08:25:18.127Z,88.05
2023-01-09T08:27:45.818Z,87.57
2023-01-09T08:30:13.555Z,87.25
2023-01-09T08:32:41.499Z,86.85
2023-01-09T08:35:09.786Z,87.43
2023-01-09T08:37:37.139Z,86.92
2023-01-09T08:40:05.616Z,84.68
2023-01-09T08:42:51.976Z,82.69
2023-01-09T08:45:38.039Z,83.14
2023-01-09T08:48:05.941Z,81.91
2023-01-09T08:50:33.761Z,80.88
2023-01-09T08:53:01.163Z,80.54
2023-01-09T08:55:28.945Z,80.90
2023-01-09T08:57:56.800Z,79.71
2023-01-09T09:00:25.015Z,79.08
2023-01-09T09:02:54.460Z,79.66
2023-01-09T09:05:23.195Z,79.67
2023-01-09T09:07:54.119Z,78.15
2023-01-09T09:10:27.365Z,78.21
2023-01-09T09:12:56.604Z,76.15
2023-01-09T09:15:26.591Z,75.32
2023-01-09T09:17:59.107Z,75.23
2023-01-09T09:20:29.573Z,75.09
2023-01-09T09:22:57.490Z,74.60
2023-01-09T09:25:25.540Z,74.19
2023-01-09T09:27:53.804Z,73.75
2023-01-09T09:30:21.222Z,72.84
2023-01-09T09:32:49.658Z,72.59
2023-01-09T09:35:21.293Z,72.70
2023-01-09T09:37:57.248Z,72.76
2023-01-09T09:40:43.172Z,73.20
2023-01-09T09:43:45.233Z,73.21
2023-01-09T09:46:38.806Z,72.51
2023-01-09T09:49:09.189Z,71.98
2023-01-09T09:51:49.340Z,72.58
2023-01-09T09:54:41.167Z,72.11
2023-01-09T09:57:16.724Z,71.86
2023-01-09T09:59:48.384Z,72.20
2023-01-09T10:02:28.265Z,71.12
2023-01-09T10:05:26.510Z,69.72
2023-01-09T10:07:54.322Z,70.46
2023-01-09T10:10:35.095Z,69.12
2023-01-09T10:13:25.050Z,68.92
2023-01-09T10:16:15.486Z,68.36
2023-01-09T10:18:57.974Z,68.09
2023-01-09T10:21:34.756Z,69.83
2023-01-09T10:24:01.990Z,70.87
2023-01-09T10:26:43.507Z,69.26
2023-01-09T10:29:29.729Z,68.42
2023-01-09T10:32:18.645Z,68.78
2023-01-09T10:35:01.469Z,68.43
2023-01-09T10:37:37.954Z,68.56
2023-01-09T10:40:14.556Z,67.71
2023-01-09T10:42:48.541Z,67.06
2023-01-09T10:45:42.494Z,67.66
2023-01-09T10:48:37.705Z,67.83
2023-01-09T10:51:46.895Z,67.21
2023-01-09T10:54:24.921Z,67.21
2023-01-09T10:57:13.091Z,66.46
2023-01-09T10:59:42.349Z,66.83
2023-01-09T11:02:27.130Z,66.82
2023-01-09T11:04:54.908Z,66.57
2023-01-09T11:07:26.987Z,65.21
2023-01-09T11:10:08.334Z,64.35
2023-01-09T11:12:36.069Z,65.34
2023-01-09T11:15:16.166Z,66.06
2023-01-09T11:17:44.581Z,66.48
2023-01-09T11:20:26.627Z,64.41
2023-01-09T11:22:57.042Z,64.37
2023-01-09T11:25:29.327Z,62.05
2023-01-09T11:28:07.060Z,62.04
2023-01-09T11:30:36.513Z,61.28
2023-01-09T11:33:16.099Z,61.85
2023-01-09T11:36:02.435Z,62.25
2023-01-09T11:38:32.332Z,62.89
2023-01-09T11:41:05.106Z,61.44
2023-01-09T11:43:37.842Z,63.47
2023-01-09T11:46:08.317Z,65.18
2023-01-09T11:48:57.111Z,65.63
2023-01-09T11:51:29.315Z,65.06
2023-01-09T11:54:22.468Z,65.02
2023-01-09T11:56:50.835Z,65.00
2023-01-09T11:59:21.344Z,65.26
2023-01-09T12:02:16.212Z,65.27
2023-01-09T12:05:12.130Z,65.19
2023-01-09T12:08:18.426Z,64.33
2023-01-09T12:11:04.184Z,63.68
2023-01-09T12:13:50.228Z,62.99
2023-01-09T12:16:57.904Z,62.02
2023-01-09T12:19:44.096Z,61.47
2023-01-09T12:22:24.027Z,61.06
2023-01-09T12:25:00.764Z,62.95
2023-01-09T12:27:39.686Z,63.03
2023-01-09T12:30:18.667Z,64.83
2023-01-09T12:32:57.937Z,65.29
2023-01-09T12:35:51.360Z,65.61
2023-01-09T12:39:02.615Z,66.23
2023-01-09T12:41:48.684Z,67.41
2023-01-09T12:44:50.591Z,67.99
2023-01-09T12:47:33.223Z,67.96
2023-01-09T12:50:24.956Z,68.06
2023-01-09T12:53:18.012Z,68.04
2023-01-09T12:56:00.161Z,68.10
2023-01-09T12:58:47.300Z,68.64
2023-01-09T13:01:20.180Z,69.19
2023-01-09T13:04:18.402Z,69.82
2023-01-09T13:06:52.010Z,70.29
2023-01-09T13:09:27.670Z,69.83
2023-01-09T13:12:14.580Z,69.82
2023-01-09T13:15:07.657Z,69.27
2023-01-09T13:17:47.160Z,70.08
2023-01-09T13:20:33.853Z,70.17
2023-01-09T13:23:05.534Z,69.99
2023-01-09T13:25:47.400Z,70.73
2023-01-09T13:28:44.002Z,70.53
2023-01-09T13:31:29.714Z,71.12
2023-01-09T13:34:00.529Z,71.09
2023-01-09T13:36:33.377Z,71.25
2023-01-09T13:39:02.526Z,71.75
2023-01-09T13:41:49.954Z,71.22
2023-01-09T13:44:29.060Z,70.98
2023-01-09T13:46:59.594Z,71.74
2023-01-09T13:49:53.406Z,73.87
2023-01-09T13:52:37.225Z,73.42
2023-01-09T13:55:17.002Z,73.52
2023-01-09T13:58:06.251Z,73.31
2023-01-09T14:00:37.545Z,73.39
2023-01-09T14:03:08.499Z,73.03
2023-01-09T14:05:35.797Z,73.26
2023-01-09T14:08:16.365Z,73.42
2023-01-09T14:10:43.879Z,72.96
2023-01-09T14:13:33.386Z,72.89
2023-01-09T14:16:20.608Z,73.19
2023-01-09T14:18:52.308Z,73.85
2023-01-09T14:21:20.611Z,74.46
2023-01-09T14:24:06.743Z,75.17
2023-01-09T14:26:48.334Z,75.18
2023-01-09T14:29:31.270Z,76.32
2023-01-09T14:32:23.949Z,76.13
2023-01-09T14:34:57.639Z,76.70
2023-01-09T14:37:28.804Z,77.16
2023-01-09T14:39:58.718Z,77.79
2023-01-09T14:42:30.891Z,78.13
2023-01-09T14:45:27.857Z,77.55
2023-01-09T14:48:03.831Z,78.58
2023-01-09T14:50:38.170Z,78.48
2023-01-09T14:53:24.121Z,78.73
2023-01-09T14:55:58.117Z,79.04
2023-01-09T14:58:28.995Z,79.25
2023-01-09T15:01:15.044Z,80.29
2023-01-09T15:03:46.845Z,80.43
2023-01-09T15:06:20.971Z,81.15
2023-01-09T15:08:59.169Z,82.17
2023-01-09T15:11:28.019Z,82.30
2023-01-09T15:14:04.376Z,82.75
2023-01-09T15:16:33.248Z,82.79
2023-01-09T15:19:04.608Z,82.69
2023-01-09T15:21:32.910Z,82.93
2023-01-09T15:24:22.055Z,82.85
2023-01-09T15:26:54.431Z,83.74
2023-01-09T15:29:23.047Z,83.92
2023-01-09T15:31:54.905Z,84.18
2023-01-09T15:34:26.220Z,84.18
2023-01-09T15:36:54.426Z,84.59
2023-01-09T15:39:51.426Z,85.00
2023-01-09T15:42:43.124Z,85.70
2023-01-09T15:45:35.492Z,86.08
2023-01-09T15:48:20.920Z,86.08
2023-01-09T15:50:54.439Z,86.29
2023-01-09T15:53:24.475Z,86.32
2023-01-09T15:56:05.609Z,87.01
2023-01-09T15:58:39.231Z,87.24
2023-01-09T16:01:35.700Z,87.60
2023-01-09T16:04:17.304Z,88.56
2023-01-09T16:06:47.978Z,88.57
2023-01-09T16:09:28.747Z,88.23
2023-01-09T16:12:02.524Z,89.35
2023-01-09T16:14:45.799Z,88.91
2023-01-09T16:17:18.165Z,89.50
2023-01-09T16:19:59.850Z,89.45
2023-01-09T16:22:34.341Z,89.67
2023-01-09T16:25:42.528Z,89.26
2023-01-09T16:28:21.327Z,89.07
2023-01-09T16:30:56.177Z,88.78
2023-01-09T16:33:26.289Z,89.47
2023-01-09T16:35:54.582Z,89.14
2023-01-09T16:38:22.975Z,89.20
2023-01-09T16:41:20.038Z,89.45
2023-01-09T16:43:47.690Z,89.51
2023-01-09T16:46:17.678Z,90.13
2023-01-09T16:48:45.050Z,89.77
2023-01-09T16:51:21.849Z,89.50
2023-01-09T16:53:50.339Z,89.57
2023-01-09T16:56:22.890Z,89.72
2023-01-09T16:58:50.767Z,90.26
2023-01-09T17:01:18.526Z,90.32
2023-01-09T17:03:45.962Z,90.36
2023-01-09T17:06:23.336Z,90.40
2023-01-09T17:08:51.730Z,90.29
2023-01-09T17:11:24.459Z,90.03
2023-01-09T17:13:52.069Z,89.64
2023-01-09T17:16:19.892Z,89.38
2023-01-09T17:18:47.247Z,88.79
2023-01-09T17:21:20.698Z,88.71
2023-01-09T17:23:48.499Z,88.62
2023-01-09T17:26:37.163Z,88.90
2023-01-09T17:29:05.230Z,89.23
2023-01-09T17:31:32.860Z,89.67
2023-01-09T17:34:00.189Z,89.62
2023-01-09T17:36:34.829Z,89.65
2023-01-09T17:39:03.122Z,89.47
2023-01-09T17:41:31.972Z,89.77
2023-01-09T17:43:59.847Z,89.21
2023-01-09T17:46:31.297Z,89.69
2023-01-09T17:48:59.250Z,89.80
2023-01-09T17:51:27.336Z,90.03
2023-01-09T17:53:55.281Z,90.05
2023-01-09T17:56:25.513Z,89.84
2023-01-09T17:58:53.286Z,89.58
2023-01-09T18:01:21.846Z,89.28
2023-01-09T18:03:50.679Z,89.15
2023-01-09T18:06:23.406Z,89.94
2023-01-09T18:08:51.469Z,89.75
2023-01-09T18:11:21.158Z,90.34
2023-01-09T18:13:50.658Z,91.40
2023-01-09T18:16:21.529Z,91.23
2023-01-09T18:18:49.127Z,91.97
2023-01-09T18:21:19.119Z,91.25
2023-01-09T18:23:47.676Z,91.83
2023-01-09T18:26:22.467Z,92.00
2023-01-09T18:28:56.354Z,92.34
2023-01-09T18:31:27.502Z,92.12
2023-01-09T18:33:57.678Z,91.58
2023-01-09T18:36:30.024Z,91.89
2023-01-09T18:38:59.588Z,92.18
2023-01-09T18:41:29.027Z,91.71
2023-01-09T18:44:01.096Z,92.57
2023-01-09T18:46:32.315Z,92.80
2023-01-09T18:49:04.747Z,93.17
2023-01-09T18:51:35.796Z,92.49
2023-01-09T18:54:04.192Z,93.16
2023-01-09T18:56:32.359Z,93.35
2023-01-09T18:59:00.269Z,93.69
2023-01-09T19:01:29.173Z,93.12
2023-01-09T19:03:59.546Z,93.10
2023-01-09T19:06:27.951Z,92.99
2023-01-09T19:08:55.351Z,93.42
2023-01-09T19:11:23.079Z,94.05
2023-01-09T19:13:50.942Z,93.54
2023-01-09T19:16:18.871Z,94.11
2023-01-09T19:18:47.057Z,93.58
2023-01-09T19:21:18.275Z,93.68
2023-01-09T19:23:47.290Z,94.36
2023-01-09T19:26:23.767Z,94.56
2023-01-09T19:28:55.390Z,95.01
2023-01-09T19:31:24.890Z,94.81
2023-01-09T19:33:52.864Z,94.68
2023-01-09T19:36:21.504Z,94.60
2023-01-09T19:38:49.246Z,94.32
2023-01-09T19:41:19.632Z,94.44
2023-01-09T19:43:48.093Z,94.49
2023-01-09T19:46:18.846Z,94.84
2023-01-09T19:48:47.088Z,94.55
2023-01-09T19:51:16.488Z,94.37
2023-01-09T19:53:44.857Z,94.62
2023-01-09T19:56:15.505Z,93.54
2023-01-09T19:58:47.911Z,93.97
2023-01-09T20:01:18.580Z,94.69
2023-01-09T20:03:48.539Z,94.92
2023-01-09T20:06:19.487Z,95.08
2023-01-09T20:08:48.552Z,94.83
2023-01-09T20:11:16.474Z,94.14
2023-01-09T20:13:44.245Z,94.70
2023-01-09T20:16:20.233Z,94.99
2023-01-09T20:18:48.159Z,95.36
2023-01-09T20:23:51.417Z,94.76
2023-01-09T20:26:19.889Z,95.19
2023-01-09T20:28:48.036Z,95.52
2023-01-09T20:31:17.968Z,95.38
2023-01-09T20:33:47.731Z,95.41
2023-01-09T20:36:15.749Z,95.41
2023-01-09T20:38:44.358Z,95.37
2023-01-09T20:41:24.265Z,96.29
2023-01-09T20:43:56.091Z,97.08
2023-01-09T20:46:26.665Z,97.71
2023-01-09T20:48:58.747Z,98.70
2023-01-09T20:51:26.579Z,99.23
2023-01-09T20:53:56.891Z,99.35
2023-01-09T20:56:29.912Z,99.82
2023-01-09T20:58:58.761Z,100.00
2023-01-09T21:01:26.762Z,100.00
2023-01-09T21:03:56.198Z,100.00
2023-01-09T21:06:25.624Z,100.00
2023-01-09T21:08:53.313Z,99.79
2023-01-09T21:11:22.197Z,99.65
2023-01-09T21:13:50.811Z,99.20
2023-01-09T21:16:21.747Z,99.72
2023-01-09T21:18:49.735Z,100.00
2023-01-09T21:21:20.108Z,99.93
2023-01-09T21:23:53.235Z,100.00
2023-01-09T21:26:24.979Z,100.00
2023-01-09T21:28:55.396Z,100.00
2023-01-09T21:31:26.717Z,100.00
2023-01-09T21:33:54.700Z,100.00
2023-01-09T21:36:22.225Z,100.00
2023-01-09T21:38:52.380Z,100.00
2023-01-09T21:41:40.096Z,100.00
2023-01-09T21:44:30.858Z,100.00
2023-01-09T21:47:00.548Z,100.00
2023-01-09T21:49:31.475Z,100.00
2023-01-09T21:51:58.994Z,100.00
2023-01-09T21:54:26.477Z,100.00
2023-01-09T21:56:54.997Z,100.00
2023-01-09T21:59:23.063Z,100.00
2023-01-09T22:01:51.128Z,100.00
2023-01-09T22:04:21.612Z,100.00
2023-01-09T22:06:49.575Z,100.00
2023-01-09T22:09:17.382Z,100.00
2023-01-09T22:11:45.324Z,100.00
2023-01-09T22:14:14.832Z,100.00
2023-01-09T22:16:43.761Z,100.00
2023-01-09T22:19:12.895Z,100.00
2023-01-09T22:21:40.199Z,100.00
2023-01-09T22:24:07.887Z,100.00
2023-01-09T22:26:35.607Z,100.00
2023-01-09T22:29:02.940Z,100.00
2023-01-09T22:31:32.805Z,100.00
2023-01-09T22:34:02.521Z,100.00
2023-01-09T22:36:31.302Z,100.00
2023-01-09T22:39:01.312Z,100.00
2023-01-09T22:41:32.721Z,100.00
2023-01-09T22:44:00.264Z,100.00
2023-01-09T22:46:27.518Z,100.00
2023-01-09T22:48:55.198Z,100.00
2023-01-09T22:51:22.985Z,100.00
2023-01-09T22:53:51.285Z,100.00
2023-01-09T22:56:20.938Z,100.00
2023-01-09T22:58:53.066Z,99.19
2023-01-09T23:01:23.127Z,98.12
2023-01-09T23:03:50.450Z,97.89
2023-01-09T23:06:22.383Z,97.99
2023-01-09T23:08:51.253Z,98.99
2023-01-09T23:11:44.386Z,99.15
2023-01-09T23:14:12.959Z,98.29
2023-01-09T23:16:40.446Z,98.25
2023-01-09T23:19:14.648Z,98.15
2023-01-09T23:21:43.381Z,98.08
2023-01-09T23:24:11.700Z,98.03
2023-01-09T23:26:39.509Z,97.04
2023-01-09T23:29:08.094Z,97.12
2023-01-09T23:31:36.145Z,97.95
2023-01-09T23:34:04.832Z,97.92
2023-01-09T23:36:32.495Z,97.68
2023-01-09T23:39:00.196Z,98.81
2023-01-09T23:41:47.478Z,98.76
2023-01-09T23:44:15.108Z,99.36
2023-01-09T23:46:42.355Z,99.76
2023-01-09T23:49:10.561Z,99.94
2023-01-09T23:51:38.208Z,99.93
2023-01-09T23:54:05.530Z,100.00
2023-01-09T23:56:34.137Z,99.91
2023-01-09T23:59:02.640Z,99.52
